sensor_id;sensor_type;location;lat;lon;timestamp;pressure;altitude;pressure_sealevel;temperature;humidity
74790;BME280;63318;52.406;13.416;2022-12-18T00:01:23;102932.01;;;-4.76;82.06
74790;BME280;63318;52.406;13.416;2022-12-18T00:03:52;102930.77;;;-4.81;82.13
74790;BME280;63318;52.406;13.416;2022-12-18T00:06:22;102937.81;;;-4.83;82.08
74790;BME280;63318;52.406;13.416;2022-12-18T00:08:51;102937.41;;;-4.85;82.19
74790;BME280;63318;52.406;13.416;2022-12-18T00:11:22;102941.56;;;-4.87;82.24
74790;BME280;63318;52.406;13.416;2022-12-18T00:13:51;102941.73;;;-4.89;82.35
74790;BME280;63318;52.406;13.416;2022-12-18T00:16:22;102945.59;;;-4.92;82.25
74790;BME280;63318;52.406;13.416;2022-12-18T00:18:54;102941.58;;;-4.97;82.26
74790;BME280;63318;52.406;13.416;2022-12-18T00:21:22;102941.33;;;-5.00;82.09
74790;BME280;63318;52.406;13.416;2022-12-18T00:23:51;102940.25;;;-5.05;82.19
74790;BME280;63318;52.406;13.416;2022-12-18T00:26:20;102946.48;;;-4.97;82.09
74790;BME280;63318;52.406;13.416;2022-12-18T00:28:50;102944.49;;;-4.93;81.98
74790;BME280;63318;52.406;13.416;2022-12-18T00:31:22;102938.28;;;-4.94;82.11
74790;BME280;63318;52.406;13.416;2022-12-18T00:33:51;102937.01;;;-4.91;82.12
74790;BME280;63318;52.406;13.416;2022-12-18T00:36:21;102936.59;;;-4.86;81.96
74790;BME280;63318;52.406;13.416;2022-12-18T00:38:50;102934.33;;;-4.83;82.02
74790;BME280;63318;52.406;13.416;2022-12-18T00:41:18;102929.23;;;-4.75;82.11
74790;BME280;63318;52.406;13.416;2022-12-18T00:43:47;102930.34;;;-4.69;82.00
74790;BME280;63318;52.406;13.416;2022-12-18T00:46:15;102928.26;;;-4.61;82.24
74790;BME280;63318;52.406;13.416;2022-12-18T00:48:44;102930.54;;;-4.58;82.15
74790;BME280;63318;52.406;13.416;2022-12-18T00:51:12;102930.52;;;-4.53;82.22
74790;BME280;63318;52.406;13.416;2022-12-18T00:53:40;102931.11;;;-4.47;82.32
74790;BME280;63318;52.406;13.416;2022-12-18T00:56:08;102931.12;;;-4.45;82.14
74790;BME280;63318;52.406;13.416;2022-12-18T00:58:37;102927.52;;;-4.45;82.02
74790;BME280;63318;52.406;13.416;2022-12-18T01:01:06;102922.41;;;-4.45;82.01
74790;BME280;63318;52.406;13.416;2022-12-18T01:03:34;102928.02;;;-4.45;82.00
74790;BME280;63318;52.406;13.416;2022-12-18T01:06:08;102926.80;;;-4.39;81.98
74790;BME280;63318;52.406;13.416;2022-12-18T01:08:37;102929.60;;;-4.40;81.87
74790;BME280;63318;52.406;13.416;2022-12-18T01:11:10;102928.38;;;-4.40;81.90
74790;BME280;63318;52.406;13.416;2022-12-18T01:13:39;102929.59;;;-4.44;81.85
74790;BME280;63318;52.406;13.416;2022-12-18T01:16:10;102930.83;;;-4.46;81.88
74790;BME280;63318;52.406;13.416;2022-12-18T01:18:39;102935.75;;;-4.42;82.00
74790;BME280;63318;52.406;13.416;2022-12-18T01:21:09;102936.74;;;-4.41;81.93
74790;BME280;63318;52.406;13.416;2022-12-18T01:23:38;102943.10;;;-4.35;81.71
74790;BME280;63318;52.406;13.416;2022-12-18T01:26:08;102946.38;;;-4.35;81.64
74790;BME280;63318;52.406;13.416;2022-12-18T01:28:38;102955.17;;;-4.45;81.72
74790;BME280;63318;52.406;13.416;2022-12-18T01:31:15;102955.37;;;-4.59;81.58
74790;BME280;63318;52.406;13.416;2022-12-18T01:33:44;102956.05;;;-4.67;81.69
74790;BME280;63318;52.406;13.416;2022-12-18T01:36:21;102956.45;;;-4.72;81.79
74790;BME280;63318;52.406;13.416;2022-12-18T01:38:50;102959.88;;;-4.77;81.77
74790;BME280;63318;52.406;13.416;2022-12-18T01:41:21;102957.33;;;-4.83;81.64
74790;BME280;63318;52.406;13.416;2022-12-18T01:43:54;102962.39;;;-4.90;81.64
74790;BME280;63318;52.406;13.416;2022-12-18T01:46:24;102963.19;;;-4.96;81.76
74790;BME280;63318;52.406;13.416;2022-12-18T01:48:56;102962.39;;;-5.00;81.56
74790;BME280;63318;52.406;13.416;2022-12-18T01:51:27;102964.02;;;-5.06;81.61
74790;BME280;63318;52.406;13.416;2022-12-18T01:53:55;102971.06;;;-5.11;81.67
74790;BME280;63318;52.406;13.416;2022-12-18T01:56:25;102972.58;;;-5.16;81.60
74790;BME280;63318;52.406;13.416;2022-12-18T01:58:58;102968.42;;;-5.23;81.67
74790;BME280;63318;52.406;13.416;2022-12-18T02:01:30;102970.66;;;-5.33;81.56
74790;BME280;63318;52.406;13.416;2022-12-18T02:04:20;102970.88;;;-5.41;81.61
74790;BME280;63318;52.406;13.416;2022-12-18T02:06:53;102965.98;;;-5.48;81.70
74790;BME280;63318;52.406;13.416;2022-12-18T02:09:26;102972.35;;;-5.51;81.71
74790;BME280;63318;52.406;13.416;2022-12-18T02:12:04;102973.23;;;-5.57;81.91
74790;BME280;63318;52.406;13.416;2022-12-18T02:14:40;102972.86;;;-5.48;81.65
74790;BME280;63318;52.406;13.416;2022-12-18T02:17:13;102971.50;;;-5.47;81.57
74790;BME280;63318;52.406;13.416;2022-12-18T02:20:01;102978.52;;;-5.44;81.74
74790;BME280;63318;52.406;13.416;2022-12-18T02:22:37;102977.50;;;-5.40;81.74
74790;BME280;63318;52.406;13.416;2022-12-18T02:25:19;102981.20;;;-5.32;81.95
74790;BME280;63318;52.406;13.416;2022-12-18T02:27:50;102984.23;;;-5.27;81.94
74790;BME280;63318;52.406;13.416;2022-12-18T02:30:20;102982.85;;;-5.23;81.90
74790;BME280;63318;52.406;13.416;2022-12-18T02:32:52;102984.23;;;-5.18;82.06
74790;BME280;63318;52.406;13.416;2022-12-18T02:35:24;102982.46;;;-5.13;81.96
74790;BME280;63318;52.406;13.416;2022-12-18T02:37:54;102987.66;;;-5.08;81.87
74790;BME280;63318;52.406;13.416;2022-12-18T02:40:25;102992.44;;;-5.05;82.02
74790;BME280;63318;52.406;13.416;2022-12-18T02:42:54;103003.02;;;-5.09;81.97
74790;BME280;63318;52.406;13.416;2022-12-18T02:45:23;102997.49;;;-5.09;82.01
74790;BME280;63318;52.406;13.416;2022-12-18T02:47:52;102998.48;;;-5.03;82.19
74790;BME280;63318;52.406;13.416;2022-12-18T02:50:25;103000.33;;;-4.97;82.18
74790;BME280;63318;52.406;13.416;2022-12-18T02:53:03;102996.26;;;-4.91;81.93
74790;BME280;63318;52.406;13.416;2022-12-18T02:55:47;102997.96;;;-4.92;81.84
74790;BME280;63318;52.406;13.416;2022-12-18T02:58:20;102999.07;;;-4.92;81.89
74790;BME280;63318;52.406;13.416;2022-12-18T03:00:56;102992.23;;;-4.92;81.78
74790;BME280;63318;52.406;13.416;2022-12-18T03:03:28;102994.97;;;-4.93;81.62
74790;BME280;63318;52.406;13.416;2022-12-18T03:06:00;102999.73;;;-4.94;81.62
74790;BME280;63318;52.406;13.416;2022-12-18T03:08:32;102994.36;;;-4.97;81.55
74790;BME280;63318;52.406;13.416;2022-12-18T03:11:04;102995.81;;;-4.97;81.60
74790;BME280;63318;52.406;13.416;2022-12-18T03:13:36;102997.95;;;-4.89;81.57
74790;BME280;63318;52.406;13.416;2022-12-18T03:16:09;102991.17;;;-4.82;81.36
74790;BME280;63318;52.406;13.416;2022-12-18T03:18:41;102995.59;;;-4.78;81.39
74790;BME280;63318;52.406;13.416;2022-12-18T03:21:11;102993.63;;;-4.76;81.48
74790;BME280;63318;52.406;13.416;2022-12-18T03:23:46;103000.91;;;-4.75;81.50
74790;BME280;63318;52.406;13.416;2022-12-18T03:26:20;103004.20;;;-4.73;81.28
74790;BME280;63318;52.406;13.416;2022-12-18T03:28:52;103000.42;;;-4.71;81.35
74790;BME280;63318;52.406;13.416;2022-12-18T03:31:23;103002.63;;;-4.69;80.97
74790;BME280;63318;52.406;13.416;2022-12-18T03:33:55;103007.10;;;-4.70;81.13
74790;BME280;63318;52.406;13.416;2022-12-18T03:36:25;103012.30;;;-4.74;81.07
74790;BME280;63318;52.406;13.416;2022-12-18T03:38:54;103011.04;;;-4.77;81.06
74790;BME280;63318;52.406;13.416;2022-12-18T03:41:29;103014.02;;;-4.78;80.99
74790;BME280;63318;52.406;13.416;2022-12-18T03:44:03;103007.52;;;-4.82;80.82
74790;BME280;63318;52.406;13.416;2022-12-18T03:46:41;103007.48;;;-4.84;80.81
74790;BME280;63318;52.406;13.416;2022-12-18T03:49:17;102998.44;;;-4.84;80.96
74790;BME280;63318;52.406;13.416;2022-12-18T03:51:53;102997.82;;;-4.86;80.81
74790;BME280;63318;52.406;13.416;2022-12-18T03:54:23;102999.70;;;-4.87;80.93
74790;BME280;63318;52.406;13.416;2022-12-18T03:56:58;103001.59;;;-4.88;80.60
74790;BME280;63318;52.406;13.416;2022-12-18T03:59:28;103007.68;;;-4.89;80.82
74790;BME280;63318;52.406;13.416;2022-12-18T04:01:58;103007.92;;;-4.93;80.76
74790;BME280;63318;52.406;13.416;2022-12-18T04:04:28;103004.06;;;-4.94;80.78
74790;BME280;63318;52.406;13.416;2022-12-18T04:06:59;103002.32;;;-5.00;80.73
74790;BME280;63318;52.406;13.416;2022-12-18T04:09:28;103003.76;;;-5.04;80.58
74790;BME280;63318;52.406;13.416;2022-12-18T04:11:58;103007.77;;;-5.05;80.86
74790;BME280;63318;52.406;13.416;2022-12-18T04:14:26;103016.61;;;-5.02;80.88
74790;BME280;63318;52.406;13.416;2022-12-18T04:16:54;103017.19;;;-5.00;80.83
74790;BME280;63318;52.406;13.416;2022-12-18T04:19:23;103013.27;;;-5.01;80.81
74790;BME280;63318;52.406;13.416;2022-12-18T04:21:51;103013.42;;;-5.01;80.56
74790;BME280;63318;52.406;13.416;2022-12-18T04:24:19;103012.39;;;-4.99;80.83
74790;BME280;63318;52.406;13.416;2022-12-18T04:26:47;103012.06;;;-4.95;80.83
74790;BME280;63318;52.406;13.416;2022-12-18T04:29:16;103017.77;;;-4.89;80.80
74790;BME280;63318;52.406;13.416;2022-12-18T04:31:44;103026.27;;;-4.84;80.77
74790;BME280;63318;52.406;13.416;2022-12-18T04:34:12;103034.61;;;-4.80;80.72
74790;BME280;63318;52.406;13.416;2022-12-18T04:36:40;103034.81;;;-4.76;80.58
74790;BME280;63318;52.406;13.416;2022-12-18T04:39:09;103031.45;;;-4.74;80.41
74790;BME280;63318;52.406;13.416;2022-12-18T04:41:37;103028.56;;;-4.72;80.21
74790;BME280;63318;52.406;13.416;2022-12-18T04:44:06;103031.88;;;-4.75;80.19
74790;BME280;63318;52.406;13.416;2022-12-18T04:46:34;103037.55;;;-4.76;80.11
74790;BME280;63318;52.406;13.416;2022-12-18T04:49:02;103034.37;;;-4.77;80.17
74790;BME280;63318;52.406;13.416;2022-12-18T04:51:30;103039.58;;;-4.77;80.17
74790;BME280;63318;52.406;13.416;2022-12-18T04:53:59;103039.87;;;-4.76;80.32
74790;BME280;63318;52.406;13.416;2022-12-18T04:56:27;103040.11;;;-4.77;80.35
74790;BME280;63318;52.406;13.416;2022-12-18T04:58:55;103037.79;;;-4.84;80.04
74790;BME280;63318;52.406;13.416;2022-12-18T05:01:23;103044.42;;;-4.83;80.24
74790;BME280;63318;52.406;13.416;2022-12-18T05:03:52;103049.68;;;-4.81;80.35
74790;BME280;63318;52.406;13.416;2022-12-18T05:06:20;103044.71;;;-4.78;80.29
74790;BME280;63318;52.406;13.416;2022-12-18T05:08:48;103037.27;;;-4.75;80.29
74790;BME280;63318;52.406;13.416;2022-12-18T05:11:17;103032.34;;;-4.72;80.18
74790;BME280;63318;52.406;13.416;2022-12-18T05:13:46;103031.77;;;-4.72;80.20
74790;BME280;63318;52.406;13.416;2022-12-18T05:16:14;103039.40;;;-4.74;80.03
74790;BME280;63318;52.406;13.416;2022-12-18T05:18:43;103050.70;;;-4.76;79.93
74790;BME280;63318;52.406;13.416;2022-12-18T05:21:11;103061.88;;;-4.78;80.07
74790;BME280;63318;52.406;13.416;2022-12-18T05:23:39;103060.09;;;-4.76;80.14
74790;BME280;63318;52.406;13.416;2022-12-18T05:26:08;103052.56;;;-4.72;80.16
74790;BME280;63318;52.406;13.416;2022-12-18T05:28:37;103056.64;;;-4.69;80.07
74790;BME280;63318;52.406;13.416;2022-12-18T05:31:06;103051.86;;;-4.67;79.94
74790;BME280;63318;52.406;13.416;2022-12-18T05:33:35;103053.68;;;-4.68;79.91
74790;BME280;63318;52.406;13.416;2022-12-18T05:36:05;103061.05;;;-4.67;79.85
74790;BME280;63318;52.406;13.416;2022-12-18T05:38:35;103066.77;;;-4.66;79.83
74790;BME280;63318;52.406;13.416;2022-12-18T05:41:04;103073.61;;;-4.62;79.99
74790;BME280;63318;52.406;13.416;2022-12-18T05:43:35;103076.88;;;-4.55;79.98
74790;BME280;63318;52.406;13.416;2022-12-18T05:46:06;103075.40;;;-4.52;79.83
74790;BME280;63318;52.406;13.416;2022-12-18T05:48:35;103078.67;;;-4.52;79.92
74790;BME280;63318;52.406;13.416;2022-12-18T05:51:08;103080.73;;;-4.53;79.86
74790;BME280;63318;52.406;13.416;2022-12-18T05:53:37;103076.90;;;-4.51;79.77
74790;BME280;63318;52.406;13.416;2022-12-18T05:56:08;103079.02;;;-4.47;79.83
74790;BME280;63318;52.406;13.416;2022-12-18T05:58:37;103083.17;;;-4.43;80.04
74790;BME280;63318;52.406;13.416;2022-12-18T06:01:10;103080.23;;;-4.38;79.76
74790;BME280;63318;52.406;13.416;2022-12-18T06:03:39;103079.16;;;-4.36;79.68
74790;BME280;63318;52.406;13.416;2022-12-18T06:06:14;103084.13;;;-4.41;79.48
74790;BME280;63318;52.406;13.416;2022-12-18T06:08:42;103091.08;;;-4.51;79.43
74790;BME280;63318;52.406;13.416;2022-12-18T06:11:10;103093.60;;;-4.58;79.55
74790;BME280;63318;52.406;13.416;2022-12-18T06:13:39;103094.16;;;-4.63;79.47
74790;BME280;63318;52.406;13.416;2022-12-18T06:16:08;103096.46;;;-4.65;79.61
74790;BME280;63318;52.406;13.416;2022-12-18T06:18:36;103101.15;;;-4.62;79.62
74790;BME280;63318;52.406;13.416;2022-12-18T06:21:05;103101.05;;;-4.66;79.51
74790;BME280;63318;52.406;13.416;2022-12-18T06:23:33;103105.20;;;-4.73;79.43
74790;BME280;63318;52.406;13.416;2022-12-18T06:26:05;103115.39;;;-4.78;79.73
74790;BME280;63318;52.406;13.416;2022-12-18T06:28:33;103116.75;;;-4.79;79.76
74790;BME280;63318;52.406;13.416;2022-12-18T06:31:01;103111.80;;;-4.81;79.59
74790;BME280;63318;52.406;13.416;2022-12-18T06:33:30;103108.64;;;-4.82;79.73
74790;BME280;63318;52.406;13.416;2022-12-18T06:36:02;103108.86;;;-4.85;79.60
74790;BME280;63318;52.406;13.416;2022-12-18T06:38:32;103113.63;;;-4.83;79.73
74790;BME280;63318;52.406;13.416;2022-12-18T06:41:02;103118.55;;;-4.81;79.72
74790;BME280;63318;52.406;13.416;2022-12-18T06:43:33;103118.59;;;-4.82;79.83
74790;BME280;63318;52.406;13.416;2022-12-18T06:46:02;103120.77;;;-4.80;79.91
74790;BME280;63318;52.406;13.416;2022-12-18T06:48:31;103124.82;;;-4.76;79.94
74790;BME280;63318;52.406;13.416;2022-12-18T06:51:00;103128.17;;;-4.73;79.85
74790;BME280;63318;52.406;13.416;2022-12-18T06:53:29;103127.42;;;-4.75;79.82
74790;BME280;63318;52.406;13.416;2022-12-18T06:56:03;103141.34;;;-4.77;79.93
74790;BME280;63318;52.406;13.416;2022-12-18T06:58:31;103142.84;;;-4.80;79.73
74790;BME280;63318;52.406;13.416;2022-12-18T07:01:03;103151.08;;;-4.84;79.68
74790;BME280;63318;52.406;13.416;2022-12-18T07:03:32;103148.91;;;-4.89;79.71
74790;BME280;63318;52.406;13.416;2022-12-18T07:06:00;103156.77;;;-4.92;79.77
74790;BME280;63318;52.406;13.416;2022-12-18T07:08:29;103155.07;;;-4.94;79.75
74790;BME280;63318;52.406;13.416;2022-12-18T07:10:58;103153.16;;;-4.95;79.92
74790;BME280;63318;52.406;13.416;2022-12-18T07:13:26;103144.55;;;-4.93;79.88
74790;BME280;63318;52.406;13.416;2022-12-18T07:15:54;103141.75;;;-4.92;79.96
74790;BME280;63318;52.406;13.416;2022-12-18T07:18:23;103142.16;;;-4.88;79.92
74790;BME280;63318;52.406;13.416;2022-12-18T07:20:51;103142.92;;;-4.86;80.05
74790;BME280;63318;52.406;13.416;2022-12-18T07:23:19;103147.07;;;-4.83;80.13
74790;BME280;63318;52.406;13.416;2022-12-18T07:25:48;103146.20;;;-4.81;80.07
74790;BME280;63318;52.406;13.416;2022-12-18T07:28:16;103151.28;;;-4.82;80.09
74790;BME280;63318;52.406;13.416;2022-12-18T07:30:44;103152.86;;;-4.81;80.15
74790;BME280;63318;52.406;13.416;2022-12-18T07:33:12;103149.53;;;-4.78;80.19
74790;BME280;63318;52.406;13.416;2022-12-18T07:35:41;103144.46;;;-4.76;80.02
74790;BME280;63318;52.406;13.416;2022-12-18T07:38:09;103145.52;;;-4.75;80.01
74790;BME280;63318;52.406;13.416;2022-12-18T07:40:37;103150.19;;;-4.79;79.96
74790;BME280;63318;52.406;13.416;2022-12-18T07:43:05;103150.59;;;-4.87;80.09
74790;BME280;63318;52.406;13.416;2022-12-18T07:45:34;103147.55;;;-4.92;80.17
74790;BME280;63318;52.406;13.416;2022-12-18T07:48:02;103152.59;;;-4.92;80.24
74790;BME280;63318;52.406;13.416;2022-12-18T07:50:30;103151.98;;;-4.91;80.23
74790;BME280;63318;52.406;13.416;2022-12-18T07:52:58;103151.75;;;-4.91;80.47
74790;BME280;63318;52.406;13.416;2022-12-18T07:55:27;103149.05;;;-4.90;80.53
74790;BME280;63318;52.406;13.416;2022-12-18T07:57:55;103149.02;;;-4.92;80.50
74790;BME280;63318;52.406;13.416;2022-12-18T08:00:23;103141.69;;;-4.89;80.54
74790;BME280;63318;52.406;13.416;2022-12-18T08:02:51;103138.42;;;-4.86;80.40
74790;BME280;63318;52.406;13.416;2022-12-18T08:05:20;103143.15;;;-4.86;80.43
74790;BME280;63318;52.406;13.416;2022-12-18T08:07:48;103142.26;;;-4.87;80.58
74790;BME280;63318;52.406;13.416;2022-12-18T08:10:17;103147.83;;;-4.86;80.44
74790;BME280;63318;52.406;13.416;2022-12-18T08:12:46;103150.20;;;-4.84;80.56
74790;BME280;63318;52.406;13.416;2022-12-18T08:15:16;103157.00;;;-4.83;80.57
74790;BME280;63318;52.406;13.416;2022-12-18T08:17:44;103161.52;;;-4.86;80.45
74790;BME280;63318;52.406;13.416;2022-12-18T08:20:13;103155.57;;;-4.91;80.39
74790;BME280;63318;52.406;13.416;2022-12-18T08:22:42;103154.96;;;-4.95;80.63
74790;BME280;63318;52.406;13.416;2022-12-18T08:25:10;103157.95;;;-4.96;80.73
74790;BME280;63318;52.406;13.416;2022-12-18T08:27:38;103164.00;;;-4.95;80.59
74790;BME280;63318;52.406;13.416;2022-12-18T08:30:09;103169.17;;;-4.91;80.77
74790;BME280;63318;52.406;13.416;2022-12-18T08:32:38;103164.41;;;-4.88;80.80
74790;BME280;63318;52.406;13.416;2022-12-18T08:35:08;103158.09;;;-4.86;80.79
74790;BME280;63318;52.406;13.416;2022-12-18T08:37:36;103159.03;;;-4.84;80.64
74790;BME280;63318;52.406;13.416;2022-12-18T08:40:07;103164.11;;;-4.84;80.70
74790;BME280;63318;52.406;13.416;2022-12-18T08:42:36;103169.91;;;-4.87;80.66
74790;BME280;63318;52.406;13.416;2022-12-18T08:45:04;103171.17;;;-4.87;80.89
74790;BME280;63318;52.406;13.416;2022-12-18T08:47:33;103175.22;;;-4.88;80.46
74790;BME280;63318;52.406;13.416;2022-12-18T08:50:01;103178.23;;;-4.89;80.73
74790;BME280;63318;52.406;13.416;2022-12-18T08:52:32;103175.45;;;-4.91;80.94
74790;BME280;63318;52.406;13.416;2022-12-18T08:55:00;103174.99;;;-4.89;80.90
74790;BME280;63318;52.406;13.416;2022-12-18T08:57:29;103187.02;;;-4.86;80.94
74790;BME280;63318;52.406;13.416;2022-12-18T08:59:57;103195.47;;;-4.83;80.95
74790;BME280;63318;52.406;13.416;2022-12-18T09:02:26;103196.17;;;-4.78;81.03
74790;BME280;63318;52.406;13.416;2022-12-18T09:04:54;103201.90;;;-4.73;81.13
74790;BME280;63318;52.406;13.416;2022-12-18T09:07:25;103203.02;;;-4.71;80.94
74790;BME280;63318;52.406;13.416;2022-12-18T09:09:53;103205.35;;;-4.71;80.96
74790;BME280;63318;52.406;13.416;2022-12-18T09:12:22;103208.80;;;-4.68;81.11
74790;BME280;63318;52.406;13.416;2022-12-18T09:14:50;103209.69;;;-4.66;81.08
74790;BME280;63318;52.406;13.416;2022-12-18T09:17:18;103213.75;;;-4.65;81.06
74790;BME280;63318;52.406;13.416;2022-12-18T09:19:49;103212.09;;;-4.62;81.30
74790;BME280;63318;52.406;13.416;2022-12-18T09:22:17;103214.27;;;-4.57;81.24
74790;BME280;63318;52.406;13.416;2022-12-18T09:24:46;103215.35;;;-4.55;81.21
74790;BME280;63318;52.406;13.416;2022-12-18T09:27:14;103214.11;;;-4.55;81.08
74790;BME280;63318;52.406;13.416;2022-12-18T09:29:43;103210.51;;;-4.53;81.22
74790;BME280;63318;52.406;13.416;2022-12-18T09:32:12;103209.63;;;-4.51;81.26
74790;BME280;63318;52.406;13.416;2022-12-18T09:34:40;103219.83;;;-4.50;81.22
74790;BME280;63318;52.406;13.416;2022-12-18T09:37:08;103222.84;;;-4.51;81.36
74790;BME280;63318;52.406;13.416;2022-12-18T09:39:37;103219.03;;;-4.51;81.34
74790;BME280;63318;52.406;13.416;2022-12-18T09:42:09;103209.48;;;-4.47;81.39
74790;BME280;63318;52.406;13.416;2022-12-18T09:44:45;103204.16;;;-4.39;81.40
74790;BME280;63318;52.406;13.416;2022-12-18T09:47:20;103194.98;;;-4.35;81.43
74790;BME280;63318;52.406;13.416;2022-12-18T09:49:52;103189.90;;;-4.30;81.46
74790;BME280;63318;52.406;13.416;2022-12-18T09:52:25;103189.19;;;-4.25;81.38
74790;BME280;63318;52.406;13.416;2022-12-18T09:55:03;103185.08;;;-4.18;81.34
74790;BME280;63318;52.406;13.416;2022-12-18T09:57:35;103182.13;;;-4.16;81.62
74790;BME280;63318;52.406;13.416;2022-12-18T10:00:11;103178.11;;;-4.15;81.44
74790;BME280;63318;52.406;13.416;2022-12-18T10:02:42;103171.92;;;-4.15;81.64
74790;BME280;63318;52.406;13.416;2022-12-18T10:05:19;103161.63;;;-4.13;81.58
74790;BME280;63318;52.406;13.416;2022-12-18T10:07:58;103153.06;;;-4.09;81.70
74790;BME280;63318;52.406;13.416;2022-12-18T10:10:36;103150.37;;;-4.10;81.68
74790;BME280;63318;52.406;13.416;2022-12-18T10:13:14;103147.29;;;-4.07;81.90
74790;BME280;63318;52.406;13.416;2022-12-18T10:15:52;103146.64;;;-4.01;81.98
74790;BME280;63318;52.406;13.416;2022-12-18T10:18:35;103150.06;;;-3.95;81.77
74790;BME280;63318;52.406;13.416;2022-12-18T10:21:13;103148.96;;;-3.90;81.88
74790;BME280;63318;52.406;13.416;2022-12-18T10:23:48;103148.04;;;-3.83;81.95
74790;BME280;63318;52.406;13.416;2022-12-18T10:26:21;103147.30;;;-3.76;81.84
74790;BME280;63318;52.406;13.416;2022-12-18T10:28:50;103146.45;;;-3.72;81.88
74790;BME280;63318;52.406;13.416;2022-12-18T10:31:21;103144.40;;;-3.69;81.86
74790;BME280;63318;52.406;13.416;2022-12-18T10:33:49;103143.35;;;-3.63;81.84
74790;BME280;63318;52.406;13.416;2022-12-18T10:36:18;103137.42;;;-3.59;81.91
74790;BME280;63318;52.406;13.416;2022-12-18T10:38:46;103136.55;;;-3.55;82.02
74790;BME280;63318;52.406;13.416;2022-12-18T10:41:26;103130.41;;;-3.51;81.82
74790;BME280;63318;52.406;13.416;2022-12-18T10:44:15;103124.41;;;-3.46;81.89
74790;BME280;63318;52.406;13.416;2022-12-18T10:46:46;103124.56;;;-3.37;81.77
74790;BME280;63318;52.406;13.416;2022-12-18T10:49:24;103116.08;;;-3.33;81.87
74790;BME280;63318;52.406;13.416;2022-12-18T10:52:06;103116.20;;;-3.28;81.83
74790;BME280;63318;52.406;13.416;2022-12-18T10:54:36;103116.23;;;-3.24;81.86
74790;BME280;63318;52.406;13.416;2022-12-18T10:57:33;103117.48;;;-3.24;81.95
74790;BME280;63318;52.406;13.416;2022-12-18T11:00:22;103111.61;;;-3.23;81.93
74790;BME280;63318;52.406;13.416;2022-12-18T11:02:51;103103.07;;;-3.23;81.77
74790;BME280;63318;52.406;13.416;2022-12-18T11:05:32;103102.89;;;-3.27;81.74
74790;BME280;63318;52.406;13.416;2022-12-18T11:08:02;103104.24;;;-3.28;81.81
74790;BME280;63318;52.406;13.416;2022-12-18T11:10:32;103096.68;;;-3.29;81.74
74790;BME280;63318;52.406;13.416;2022-12-18T11:13:15;103097.92;;;-3.30;81.82
74790;BME280;63318;52.406;13.416;2022-12-18T11:15:46;103100.80;;;-3.32;81.99
74790;BME280;63318;52.406;13.416;2022-12-18T11:18:22;103105.16;;;-3.28;81.83
74790;BME280;63318;52.406;13.416;2022-12-18T11:20:56;103106.52;;;-3.25;81.82
74790;BME280;63318;52.406;13.416;2022-12-18T11:23:27;103101.04;;;-3.22;81.94
74790;BME280;63318;52.406;13.416;2022-12-18T11:25:59;103098.17;;;-3.23;81.95
74790;BME280;63318;52.406;13.416;2022-12-18T11:28:35;103099.09;;;-3.21;81.80
74790;BME280;63318;52.406;13.416;2022-12-18T11:31:28;103098.42;;;-3.21;81.79
74790;BME280;63318;52.406;13.416;2022-12-18T11:34:02;103095.55;;;-3.24;81.87
74790;BME280;63318;52.406;13.416;2022-12-18T11:36:35;103099.42;;;-3.23;81.97
74790;BME280;63318;52.406;13.416;2022-12-18T11:39:13;103101.55;;;-3.20;82.01
74790;BME280;63318;52.406;13.416;2022-12-18T11:41:53;103103.27;;;-3.19;81.81
74790;BME280;63318;52.406;13.416;2022-12-18T11:44:27;103102.41;;;-3.17;81.92
74790;BME280;63318;52.406;13.416;2022-12-18T11:47:03;103102.05;;;-3.19;81.84
74790;BME280;63318;52.406;13.416;2022-12-18T11:49:39;103098.45;;;-3.24;81.67
74790;BME280;63318;52.406;13.416;2022-12-18T11:52:15;103099.50;;;-3.23;81.80
74790;BME280;63318;52.406;13.416;2022-12-18T11:54:44;103107.05;;;-3.21;82.01
74790;BME280;63318;52.406;13.416;2022-12-18T11:57:19;103113.18;;;-3.16;82.02
74790;BME280;63318;52.406;13.416;2022-12-18T11:59:57;103114.73;;;-3.13;81.85
74790;BME280;63318;52.406;13.416;2022-12-18T12:02:39;103117.30;;;-3.11;81.78
74790;BME280;63318;52.406;13.416;2022-12-18T12:05:24;103125.15;;;-3.09;81.89
74790;BME280;63318;52.406;13.416;2022-12-18T12:08:01;103123.38;;;-3.08;81.98
74790;BME280;63318;52.406;13.416;2022-12-18T12:10:42;103126.42;;;-3.03;82.08
74790;BME280;63318;52.406;13.416;2022-12-18T12:13:27;103126.34;;;-2.96;82.08
74790;BME280;63318;52.406;13.416;2022-12-18T12:16:06;103122.09;;;-2.91;81.97
74790;BME280;63318;52.406;13.416;2022-12-18T12:18:46;103126.41;;;-2.86;81.85
74790;BME280;63318;52.406;13.416;2022-12-18T12:21:20;103126.84;;;-2.85;81.79
74790;BME280;63318;52.406;13.416;2022-12-18T12:23:56;103125.40;;;-2.89;81.97
74790;BME280;63318;52.406;13.416;2022-12-18T12:26:32;103122.69;;;-2.87;82.09
74790;BME280;63318;52.406;13.416;2022-12-18T12:29:18;103123.50;;;-2.84;81.99
74790;BME280;63318;52.406;13.416;2022-12-18T12:32:00;103128.79;;;-2.82;81.94
74790;BME280;63318;52.406;13.416;2022-12-18T12:34:37;103135.80;;;-2.82;82.12
74790;BME280;63318;52.406;13.416;2022-12-18T12:46:45;103147.55;;;-3.02;81.78
74790;BME280;63318;52.406;13.416;2022-12-18T12:49:17;103141.42;;;-3.07;81.82
74790;BME280;63318;52.406;13.416;2022-12-18T12:51:53;103138.08;;;-3.10;81.89
74790;BME280;63318;52.406;13.416;2022-12-18T12:54:25;103130.75;;;-3.14;81.75
74790;BME280;63318;52.406;13.416;2022-12-18T12:57:00;103120.17;;;-3.18;82.01
74790;BME280;63318;52.406;13.416;2022-12-18T12:59:34;103115.03;;;-3.21;81.97
74790;BME280;63318;52.406;13.416;2022-12-18T13:02:10;103114.66;;;-3.25;81.89
74790;BME280;63318;52.406;13.416;2022-12-18T13:04:47;103103.39;;;-3.31;81.89
74790;BME280;63318;52.406;13.416;2022-12-18T13:07:23;103101.74;;;-3.35;82.19
74790;BME280;63318;52.406;13.416;2022-12-18T13:10:24;103104.27;;;-3.39;82.24
74790;BME280;63318;52.406;13.416;2022-12-18T13:12:58;103100.00;;;-3.42;82.43